createdAt,value
2018-01-16T00:01:24.620Z,84.17
2018-01-16T00:03:52.208Z,84.09
2018-01-16T00:06:19.790Z,84.65
2018-01-16T00:08:47.418Z,85.10
2018-01-16T00:11:15.026Z,84.19
2018-01-16T00:13:42.595Z,84.67
2018-01-16T00:16:10.236Z,83.97
2018-01-16T00:18:37.804Z,84.29
2018-01-16T00:21:05.517Z,85.10
2018-01-16T00:23:33.137Z,84.34
2018-01-16T00:26:00.900Z,83.96
2018-01-16T00:28:28.484Z,83.50
2018-01-16T00:30:56.173Z,83.85
2018-01-16T00:33:23.747Z,83.48
2018-01-16T00:35:51.488Z,83.52
2018-01-16T00:38:19.149Z,83.16
2018-01-16T00:40:46.885Z,84.23
2018-01-16T00:43:14.675Z,84.86
2018-01-16T00:45:42.297Z,84.48
2018-01-16T00:48:09.890Z,84.26
2018-01-16T00:50:37.471Z,84.42
2018-01-16T00:53:05.103Z,84.95
2018-01-16T00:55:33.003Z,84.95
2018-01-16T00:58:00.602Z,84.90
2018-01-16T01:00:28.316Z,84.05
2018-01-16T01:02:55.902Z,84.42
2018-01-16T01:05:23.484Z,84.17
2018-01-16T01:07:51.104Z,83.95
2018-01-16T01:10:18.696Z,83.64
2018-01-16T01:12:46.278Z,84.34
2018-01-16T01:15:14.083Z,84.82
2018-01-16T01:17:41.668Z,84.37
2018-01-16T01:20:09.245Z,83.78
2018-01-16T01:22:37.080Z,84.11
2018-01-16T01:25:04.741Z,84.59
2018-01-16T01:27:32.469Z,84.83
2018-01-16T01:30:00.270Z,84.97
2018-01-16T01:32:27.934Z,84.91
2018-01-16T01:34:55.585Z,84.57
2018-01-16T01:37:23.211Z,85.12
2018-01-16T01:39:50.792Z,85.76
2018-01-16T01:42:18.354Z,85.81
2018-01-16T01:44:45.968Z,86.10
2018-01-16T01:47:13.689Z,86.20
2018-01-16T01:49:41.266Z,85.82
2018-01-16T01:52:09.007Z,86.12
2018-01-16T01:54:36.688Z,85.76
2018-01-16T01:57:04.263Z,85.52
2018-01-16T01:59:31.867Z,85.59
2018-01-16T02:01:59.434Z,85.30
2018-01-16T02:04:27.118Z,85.07
2018-01-16T02:06:54.779Z,85.37
2018-01-16T02:09:22.354Z,85.58
2018-01-16T02:11:49.939Z,85.76
2018-01-16T02:14:17.577Z,85.85
2018-01-16T02:16:45.155Z,85.78
2018-01-16T02:19:12.739Z,85.78
2018-01-16T02:21:40.566Z,85.91
2018-01-16T02:24:08.215Z,85.24
2018-01-16T02:26:35.790Z,84.80
2018-01-16T02:29:03.666Z,83.20
2018-01-16T02:31:31.257Z,83.38
2018-01-16T02:33:59.072Z,83.48
2018-01-16T02:36:26.724Z,84.28
2018-01-16T02:38:54.308Z,84.44
2018-01-16T02:41:21.893Z,85.27
2018-01-16T02:43:49.711Z,86.03
2018-01-16T02:46:17.393Z,85.42
2018-01-16T02:48:45.053Z,85.14
2018-01-16T02:51:12.717Z,84.99
2018-01-16T02:53:40.286Z,84.98
2018-01-16T02:56:08.023Z,84.57
2018-01-16T02:58:35.667Z,84.59
2018-01-16T03:01:03.353Z,83.73
2018-01-16T03:03:30.925Z,83.38
2018-01-16T03:05:58.670Z,83.46
2018-01-16T03:08:26.255Z,83.75
2018-01-16T03:10:54.011Z,83.52
2018-01-16T03:13:21.628Z,83.73
2018-01-16T03:15:49.215Z,83.75
2018-01-16T03:18:16.787Z,84.79
2018-01-16T03:20:44.403Z,84.88
2018-01-16T03:23:12.110Z,84.76
2018-01-16T03:25:39.687Z,84.35
2018-01-16T03:28:07.308Z,83.71
2018-01-16T03:30:35.156Z,83.72
2018-01-16T03:33:02.768Z,83.29
2018-01-16T03:35:30.393Z,83.57
2018-01-16T03:37:58.076Z,83.05
2018-01-16T03:40:25.739Z,83.12
2018-01-16T03:42:53.347Z,83.12
2018-01-16T03:45:21.088Z,82.95
2018-01-16T03:47:48.689Z,82.47
2018-01-16T03:50:16.387Z,82.43
2018-01-16T03:52:44.052Z,82.54
2018-01-16T03:55:11.632Z,82.66
2018-01-16T03:57:39.248Z,82.38
2018-01-16T04:00:07.046Z,82.36
2018-01-16T04:02:34.628Z,82.37
2018-01-16T04:05:02.376Z,82.26
2018-01-16T04:07:29.956Z,81.94
2018-01-16T04:09:57.689Z,82.24
2018-01-16T04:12:25.353Z,82.56
2018-01-16T04:14:52.915Z,82.70
2018-01-16T04:17:20.690Z,83.24
2018-01-16T04:19:48.307Z,82.58
2018-01-16T04:22:15.887Z,82.05
2018-01-16T04:24:43.509Z,81.70
2018-01-16T04:27:11.334Z,81.42
2018-01-16T04:29:39.188Z,81.06
2018-01-16T04:32:06.776Z,81.19
2018-01-16T04:34:34.426Z,81.72
2018-01-16T04:37:01.997Z,81.60
2018-01-16T04:39:29.634Z,81.59
2018-01-16T04:41:57.505Z,82.31
2018-01-16T04:44:25.082Z,83.05
2018-01-16T04:46:52.655Z,83.20
2018-01-16T04:49:20.266Z,82.79
2018-01-16T04:51:47.844Z,82.95
2018-01-16T04:54:15.413Z,83.64
2018-01-16T04:56:43.027Z,83.28
2018-01-16T04:59:10.734Z,83.32
2018-01-16T05:01:38.312Z,83.04
2018-01-16T05:04:06.277Z,82.80
2018-01-16T05:06:33.862Z,83.35
2018-01-16T05:09:01.431Z,82.74
2018-01-16T05:11:29.239Z,82.19
2018-01-16T05:13:56.814Z,81.78
2018-01-16T05:16:24.574Z,81.91
2018-01-16T05:18:52.186Z,82.22
2018-01-16T05:21:20.039Z,82.57
2018-01-16T05:23:47.762Z,83.68
2018-01-16T05:26:15.550Z,84.03
2018-01-16T05:28:43.137Z,83.25
2018-01-16T05:31:10.833Z,82.92
2018-01-16T05:33:38.460Z,82.77
2018-01-16T05:36:06.114Z,82.96
2018-01-16T05:38:33.733Z,83.13
2018-01-16T05:41:01.350Z,83.39
2018-01-16T05:43:28.930Z,82.62
2018-01-16T05:45:56.730Z,82.62
2018-01-16T05:48:24.388Z,82.94
2018-01-16T05:50:52.055Z,82.81
2018-01-16T05:53:19.699Z,82.91
2018-01-16T05:55:47.310Z,83.01
2018-01-16T05:58:15.046Z,83.05
2018-01-16T06:00:42.686Z,82.84
2018-01-16T06:03:10.357Z,82.31
2018-01-16T06:05:37.961Z,82.05
2018-01-16T06:08:05.591Z,81.87
2018-01-16T06:10:33.338Z,81.89
2018-01-16T06:13:00.925Z,81.94
2018-01-16T06:15:28.672Z,83.18
2018-01-16T06:17:56.540Z,87.04
2018-01-16T06:20:24.127Z,83.61
2018-01-16T06:22:51.857Z,82.10
2018-01-16T06:25:19.487Z,80.94
2018-01-16T06:27:47.176Z,80.03
2018-01-16T06:30:15.127Z,79.40
2018-01-16T06:32:43.132Z,78.34
2018-01-16T06:35:10.711Z,78.30
2018-01-16T06:37:38.464Z,77.68
2018-01-16T06:40:06.494Z,76.99
2018-01-16T06:42:34.312Z,76.03
2018-01-16T06:45:02.126Z,75.54
2018-01-16T06:47:29.741Z,75.12
2018-01-16T06:49:57.384Z,74.69
2018-01-16T06:52:25.041Z,73.37
2018-01-16T06:54:52.703Z,73.11
2018-01-16T06:57:20.353Z,72.28
2018-01-16T06:59:47.957Z,71.52
2018-01-16T07:02:15.667Z,71.43
2018-01-16T07:04:43.532Z,71.43
2018-01-16T07:07:11.399Z,69.68
2018-01-16T07:09:39.069Z,69.68
2018-01-16T07:12:06.641Z,69.30
2018-01-16T07:14:34.403Z,66.94
2018-01-16T07:17:02.142Z,65.46
2018-01-16T07:19:29.774Z,64.40
2018-01-16T07:21:57.341Z,62.74
2018-01-16T07:24:25.011Z,63.14
2018-01-16T07:26:52.624Z,63.85
2018-01-16T07:29:20.236Z,65.45
2018-01-16T07:31:47.826Z,64.93
2018-01-16T07:34:15.508Z,64.90
2018-01-16T07:36:43.346Z,65.32
2018-01-16T07:39:11.088Z,65.50
2018-01-16T07:41:38.673Z,86.91
2018-01-16T07:44:06.256Z,77.01
2018-01-16T07:46:34.009Z,71.73
2018-01-16T07:49:01.685Z,68.20
2018-01-16T07:51:29.263Z,63.04
2018-01-16T07:53:57.188Z,63.66
2018-01-16T07:56:24.878Z,64.21
2018-01-16T07:58:52.444Z,64.97
2018-01-16T08:01:20.206Z,65.61
2018-01-16T08:03:48.031Z,65.96
2018-01-16T08:06:15.846Z,66.41
2018-01-16T08:08:43.597Z,66.42
2018-01-16T08:11:11.261Z,66.41
2018-01-16T08:13:39.096Z,65.91
2018-01-16T08:16:06.773Z,65.88
2018-01-16T08:18:34.397Z,63.04
2018-01-16T08:21:01.960Z,59.63
2018-01-16T08:23:29.766Z,56.97
2018-01-16T08:25:57.352Z,55.80
2018-01-16T08:28:25.097Z,56.53
2018-01-16T08:30:52.953Z,54.52
2018-01-16T08:33:20.628Z,53.74
2018-01-16T08:35:48.197Z,52.39
2018-01-16T08:38:16.111Z,48.66
2018-01-16T08:40:43.695Z,45.58
2018-01-16T08:43:12.356Z,45.28
2018-01-16T08:45:40.026Z,46.15
2018-01-16T08:48:07.604Z,46.06
2018-01-16T08:50:35.269Z,45.90
2018-01-16T08:53:02.981Z,47.23
2018-01-16T08:55:30.611Z,47.18
2018-01-16T08:57:58.178Z,47.01
2018-01-16T09:00:25.937Z,46.04
2018-01-16T09:02:53.804Z,45.88
2018-01-16T09:05:21.388Z,44.52
2018-01-16T09:07:49.010Z,44.62
2018-01-16T09:10:16.599Z,42.25
2018-01-16T09:12:44.240Z,40.90
2018-01-16T09:15:11.879Z,40.17
2018-01-16T09:17:39.572Z,40.43
2018-01-16T09:20:07.419Z,40.44
2018-01-16T09:22:35.064Z,40.72
2018-01-16T09:25:02.650Z,40.44
2018-01-16T09:27:30.245Z,41.47
2018-01-16T09:29:57.850Z,41.45
2018-01-16T09:32:25.440Z,41.13
2018-01-16T09:34:53.018Z,41.13
2018-01-16T09:37:20.745Z,41.93
2018-01-16T09:39:48.329Z,40.74
2018-01-16T09:42:15.988Z,38.87
2018-01-16T09:44:43.712Z,37.35
2018-01-16T09:47:11.507Z,36.09
2018-01-16T09:49:39.089Z,34.85
2018-01-16T09:52:06.846Z,35.52
2018-01-16T09:54:34.426Z,35.02
2018-01-16T09:57:02.013Z,32.50
2018-01-16T09:59:29.812Z,33.04
2018-01-16T10:01:57.387Z,33.93
2018-01-16T10:04:25.051Z,35.09
2018-01-16T10:06:52.669Z,34.23
2018-01-16T10:09:20.274Z,33.88
2018-01-16T10:11:47.849Z,36.11
2018-01-16T10:14:15.493Z,38.16
2018-01-16T10:16:43.229Z,42.32
2018-01-16T10:19:10.922Z,43.12
2018-01-16T10:21:38.569Z,46.46
2018-01-16T10:24:06.245Z,50.29
2018-01-16T10:26:34.104Z,52.99
2018-01-16T10:29:01.775Z,52.26
2018-01-16T10:31:29.360Z,54.09
2018-01-16T10:33:57.099Z,49.94
2018-01-16T10:36:24.836Z,49.88
2018-01-16T10:38:52.617Z,49.94
2018-01-16T10:41:20.298Z,49.28
2018-01-16T10:43:47.915Z,50.58
2018-01-16T10:46:15.491Z,50.45
2018-01-16T10:48:43.101Z,49.82
2018-01-16T10:51:10.926Z,51.33
2018-01-16T10:53:38.590Z,52.69
2018-01-16T10:56:06.260Z,51.18
2018-01-16T10:58:33.872Z,52.02
2018-01-16T11:01:01.583Z,50.95
2018-01-16T11:03:29.332Z,49.67
2018-01-16T11:05:56.936Z,49.29
2018-01-16T11:08:24.509Z,49.61
2018-01-16T11:10:52.222Z,49.40
2018-01-16T11:13:19.835Z,49.46
2018-01-16T11:15:47.413Z,47.90
2018-01-16T11:18:15.014Z,46.21
2018-01-16T11:20:42.616Z,46.04
2018-01-16T11:23:10.182Z,44.75
2018-01-16T11:25:37.800Z,45.01
2018-01-16T11:28:05.450Z,46.13
2018-01-16T11:30:33.111Z,44.94
2018-01-16T11:33:00.787Z,44.18
2018-01-16T11:35:28.511Z,43.24
2018-01-16T11:37:56.316Z,44.34
2018-01-16T11:40:23.978Z,43.87
2018-01-16T11:42:51.585Z,43.84
2018-01-16T11:45:19.507Z,45.25
2018-01-16T11:47:47.067Z,45.73
2018-01-16T11:50:14.712Z,47.71
2018-01-16T11:52:42.293Z,49.52
2018-01-16T11:55:10.094Z,51.29
2018-01-16T11:57:37.805Z,51.90
2018-01-16T12:00:05.420Z,50.20
2018-01-16T12:02:33.141Z,46.79
2018-01-16T12:05:00.829Z,44.30
2018-01-16T12:07:28.656Z,43.09
2018-01-16T12:09:56.335Z,42.54
2018-01-16T12:12:23.976Z,39.36
2018-01-16T12:14:51.588Z,38.01
2018-01-16T12:17:19.315Z,37.30
2018-01-16T12:19:46.954Z,37.76
2018-01-16T12:22:14.593Z,36.92
2018-01-16T12:24:42.299Z,35.49
2018-01-16T12:27:09.904Z,35.21
2018-01-16T12:29:37.484Z,37.01
2018-01-16T12:32:05.089Z,38.81
2018-01-16T12:34:32.705Z,40.79
2018-01-16T12:37:00.415Z,42.62
2018-01-16T12:39:28.124Z,43.67
2018-01-16T12:41:55.929Z,47.22
2018-01-16T12:44:23.588Z,48.07
2018-01-16T12:46:51.217Z,50.42
2018-01-16T12:49:18.827Z,51.46
2018-01-16T12:51:46.402Z,51.86
2018-01-16T12:54:14.047Z,52.30
2018-01-16T12:56:41.713Z,53.06
2018-01-16T12:59:09.289Z,54.44
2018-01-16T13:01:39.050Z,55.21
2018-01-16T13:04:08.364Z,55.93
2018-01-16T13:06:36.039Z,55.62
2018-01-16T13:09:03.912Z,57.28
2018-01-16T13:11:31.522Z,58.92
2018-01-16T13:13:59.327Z,59.74
2018-01-16T13:16:27.094Z,60.30
2018-01-16T13:18:54.764Z,61.32
2018-01-16T13:21:22.431Z,60.99
2018-01-16T13:23:50.013Z,62.24
2018-01-16T13:26:17.617Z,63.64
2018-01-16T13:28:45.192Z,63.21
2018-01-16T13:31:12.808Z,62.92
2018-01-16T13:33:40.437Z,60.88
2018-01-16T13:36:08.042Z,60.26
2018-01-16T13:38:35.849Z,59.91
2018-01-16T13:41:03.478Z,59.79
2018-01-16T13:43:31.051Z,59.82
2018-01-16T13:45:58.647Z,59.80
2018-01-16T13:48:26.267Z,59.11
2018-01-16T13:50:53.883Z,58.00
2018-01-16T13:53:21.484Z,57.12
2018-01-16T13:55:49.109Z,58.06
2018-01-16T13:58:16.677Z,57.89
2018-01-16T14:00:44.257Z,57.88
2018-01-16T14:03:11.852Z,57.05
2018-01-16T14:05:39.429Z,57.77
2018-01-16T14:08:07.013Z,57.36
2018-01-16T14:10:34.618Z,58.19
2018-01-16T14:13:02.202Z,57.84
2018-01-16T14:15:29.769Z,58.13
2018-01-16T14:17:57.371Z,58.91
2018-01-16T14:20:24.954Z,58.84
2018-01-16T14:22:52.528Z,60.11
2018-01-16T14:25:20.127Z,60.78
2018-01-16T14:27:47.696Z,61.71
2018-01-16T14:30:15.286Z,62.92
2018-01-16T14:32:42.906Z,63.80
2018-01-16T14:35:10.490Z,64.54
2018-01-16T14:37:38.097Z,65.42
2018-01-16T14:40:05.694Z,66.27
2018-01-16T14:42:33.275Z,67.02
2018-01-16T14:45:00.843Z,67.24
2018-01-16T14:47:28.460Z,68.69
2018-01-16T14:49:56.037Z,68.98
2018-01-16T14:52:23.613Z,70.17
2018-01-16T14:54:51.218Z,70.63
2018-01-16T14:57:18.783Z,71.10
2018-01-16T14:59:46.357Z,71.22
2018-01-16T15:02:13.970Z,71.61
2018-01-16T15:04:41.561Z,71.93
2018-01-16T15:07:09.141Z,72.47
2018-01-16T15:09:36.765Z,72.46
2018-01-16T15:12:04.368Z,72.02
2018-01-16T15:14:31.940Z,72.11
2018-01-16T15:16:59.549Z,72.44
2018-01-16T15:19:27.133Z,72.66
2018-01-16T15:21:54.727Z,73.21
2018-01-16T15:24:22.327Z,72.62
2018-01-16T15:26:49.912Z,73.74
2018-01-16T15:29:17.493Z,74.35
2018-01-16T15:31:45.108Z,74.05
2018-01-16T15:34:12.687Z,75.19
2018-01-16T15:36:42.654Z,74.27
2018-01-16T15:39:10.403Z,74.61
2018-01-16T15:41:38.025Z,74.34
2018-01-16T15:44:05.600Z,74.39
2018-01-16T15:46:33.228Z,74.55
2018-01-16T15:49:00.796Z,75.11
2018-01-16T15:51:28.388Z,74.94
2018-01-16T15:53:56.005Z,75.43
2018-01-16T15:56:23.593Z,75.90
2018-01-16T15:58:51.178Z,75.45
2018-01-16T16:01:18.821Z,75.41
2018-01-16T16:03:46.450Z,75.48
2018-01-16T16:06:14.041Z,75.99
2018-01-16T16:08:41.824Z,76.60
2018-01-16T16:11:09.414Z,76.93
2018-01-16T16:13:37.006Z,76.85
2018-01-16T16:16:04.628Z,77.58
2018-01-16T16:18:32.213Z,77.05
2018-01-16T16:20:59.794Z,77.09
2018-01-16T16:23:27.423Z,76.90
2018-01-16T16:25:55.018Z,76.99
2018-01-16T16:28:22.595Z,77.33
2018-01-16T16:30:50.274Z,77.54
2018-01-16T16:33:17.845Z,77.67
2018-01-16T16:35:45.441Z,76.98
2018-01-16T16:38:13.070Z,77.25
2018-01-16T16:40:40.641Z,77.32
2018-01-16T16:43:08.234Z,77.84
2018-01-16T16:45:35.843Z,78.00
2018-01-16T16:48:03.415Z,78.78
2018-01-16T16:50:30.990Z,78.13
2018-01-16T16:52:58.624Z,78.84
2018-01-16T16:55:26.186Z,78.90
2018-01-16T16:57:53.751Z,79.32
2018-01-16T17:00:21.377Z,80.53
2018-01-16T17:02:48.947Z,80.86
2018-01-16T17:05:16.490Z,81.27
2018-01-16T17:07:44.077Z,81.62
2018-01-16T17:10:11.649Z,82.13
2018-01-16T17:12:39.226Z,82.34
2018-01-16T17:15:06.843Z,82.32
2018-01-16T17:17:34.454Z,82.84
2018-01-16T17:20:02.061Z,83.55
2018-01-16T17:22:29.673Z,83.50
2018-01-16T17:24:57.263Z,83.71
2018-01-16T17:27:24.825Z,82.90
2018-01-16T17:29:52.429Z,79.99
2018-01-16T17:32:20.016Z,79.76
2018-01-16T17:34:47.605Z,79.54
2018-01-16T17:37:15.210Z,79.26
2018-01-16T17:39:42.772Z,79.28
2018-01-16T17:42:10.337Z,79.34
2018-01-16T17:44:38.033Z,79.04
2018-01-16T17:47:05.606Z,78.41
2018-01-16T17:49:33.185Z,78.23
2018-01-16T17:52:00.798Z,79.49
2018-01-16T17:54:28.354Z,79.43
2018-01-16T17:56:55.918Z,77.94
2018-01-16T17:59:23.518Z,80.05
2018-01-16T18:01:51.112Z,79.19
2018-01-16T18:04:18.692Z,84.11
2018-01-16T18:06:46.302Z,85.68
2018-01-16T18:09:13.890Z,83.92
2018-01-16T18:11:41.659Z,84.76
2018-01-16T18:14:09.258Z,84.88
2018-01-16T18:16:36.826Z,80.50
2018-01-16T18:19:04.492Z,80.33
2018-01-16T18:21:32.094Z,79.92
2018-01-16T18:23:59.636Z,78.55
2018-01-16T18:26:27.213Z,79.04
2018-01-16T18:28:54.830Z,78.47
2018-01-16T18:31:22.397Z,79.73
2018-01-16T18:33:50.178Z,80.70
2018-01-16T18:36:17.796Z,80.33
2018-01-16T18:38:45.369Z,80.30
2018-01-16T18:41:12.939Z,80.42
2018-01-16T18:43:40.558Z,80.96
2018-01-16T18:46:08.118Z,81.10
2018-01-16T18:48:35.675Z,79.90
2018-01-16T18:51:03.939Z,79.59
2018-01-16T18:53:31.496Z,80.29
2018-01-16T18:55:59.074Z,79.24
2018-01-16T18:58:26.653Z,79.26
2018-01-16T19:00:54.207Z,79.83
2018-01-16T19:03:21.765Z,79.76
2018-01-16T19:05:49.385Z,80.36
2018-01-16T19:08:16.945Z,80.94
2018-01-16T19:10:44.514Z,81.11
2018-01-16T19:13:12.135Z,80.56
2018-01-16T19:15:39.724Z,80.31
2018-01-16T19:18:07.282Z,80.85
2018-01-16T19:20:34.896Z,80.38
2018-01-16T19:23:02.473Z,80.43
2018-01-16T19:25:30.041Z,80.79
2018-01-16T19:27:57.635Z,80.75
2018-01-16T19:30:25.210Z,80.71
2018-01-16T19:32:52.764Z,80.82
2018-01-16T19:35:20.409Z,81.03
2018-01-16T19:37:47.973Z,81.47
2018-01-16T19:40:15.538Z,82.19
2018-01-16T19:42:43.137Z,82.41
2018-01-16T19:45:10.757Z,81.84
2018-01-16T19:47:38.309Z,81.50
2018-01-16T19:50:05.903Z,81.22
2018-01-16T19:52:33.466Z,82.07
2018-01-16T19:55:01.040Z,81.83
2018-01-16T19:57:28.731Z,81.59
2018-01-16T19:59:56.310Z,81.93
2018-01-16T20:02:23.877Z,82.21
2018-01-16T20:04:52.630Z,82.14
2018-01-16T20:07:20.188Z,81.91
2018-01-16T20:09:47.752Z,81.96
2018-01-16T20:12:15.359Z,81.93
2018-01-16T20:14:43.878Z,81.88
2018-01-16T20:17:11.436Z,82.07
2018-01-16T20:19:39.036Z,81.82
2018-01-16T20:22:06.600Z,81.69
2018-01-16T20:24:34.165Z,81.57
2018-01-16T20:27:01.811Z,81.30
2018-01-16T20:29:29.381Z,81.43
2018-01-16T20:31:56.953Z,81.15
2018-01-16T20:34:24.580Z,81.08
2018-01-16T20:36:52.172Z,81.44
2018-01-16T20:39:19.783Z,82.01
2018-01-16T20:41:47.393Z,81.71
2018-01-16T20:44:14.968Z,81.72
2018-01-16T20:46:42.607Z,82.05
2018-01-16T20:49:10.412Z,81.96
2018-01-16T20:51:38.007Z,81.71
2018-01-16T20:54:05.561Z,82.01
2018-01-16T20:56:33.161Z,82.72
2018-01-16T20:59:00.730Z,82.99
2018-01-16T21:01:28.283Z,82.86
2018-01-16T21:03:56.001Z,82.36
2018-01-16T21:06:23.657Z,82.38
2018-01-16T21:08:51.247Z,81.94
2018-01-16T21:11:18.936Z,82.41
2018-01-16T21:13:46.517Z,82.32
2018-01-16T21:16:14.107Z,82.55
2018-01-16T21:18:41.706Z,82.46
2018-01-16T21:21:09.328Z,82.04
2018-01-16T21:23:37.049Z,81.88
2018-01-16T21:26:04.668Z,81.57
2018-01-16T21:28:32.233Z,81.27
2018-01-16T21:30:59.800Z,80.61
2018-01-16T21:33:27.489Z,80.04
2018-01-16T21:35:55.130Z,79.91
2018-01-16T21:38:22.800Z,79.96
2018-01-16T21:40:50.431Z,79.34
2018-01-16T21:43:17.997Z,79.66
2018-01-16T21:45:45.577Z,80.34
2018-01-16T21:48:13.230Z,81.03
2018-01-16T21:50:40.811Z,80.59
2018-01-16T21:53:08.433Z,80.29
2018-01-16T21:55:36.029Z,80.54
2018-01-16T21:58:03.615Z,80.39
2018-01-16T22:00:31.231Z,80.33
2018-01-16T22:02:58.835Z,80.79
2018-01-16T22:05:26.414Z,81.08
2018-01-16T22:07:54.149Z,81.19
2018-01-16T22:10:21.793Z,82.06
2018-01-16T22:12:49.520Z,81.62
2018-01-16T22:15:17.183Z,81.66
2018-01-16T22:17:44.788Z,81.05
2018-01-16T22:20:12.380Z,81.42
2018-01-16T22:22:39.952Z,81.44
2018-01-16T22:25:07.554Z,81.33
2018-01-16T22:27:35.231Z,80.94
2018-01-16T22:30:02.820Z,80.86
2018-01-16T22:32:30.491Z,81.14
2018-01-16T22:34:58.066Z,81.23
2018-01-16T22:37:25.623Z,80.53
2018-01-16T22:39:53.333Z,80.15
2018-01-16T22:42:20.903Z,80.21
2018-01-16T22:44:48.463Z,79.90
2018-01-16T22:47:16.056Z,79.69
2018-01-16T22:49:43.603Z,79.48
2018-01-16T22:52:11.188Z,78.61
2018-01-16T22:54:38.862Z,78.90
2018-01-16T22:57:06.470Z,78.52
2018-01-16T22:59:34.039Z,78.78
2018-01-16T23:02:01.642Z,79.20
2018-01-16T23:04:29.241Z,79.68
2018-01-16T23:06:56.807Z,79.49
2018-01-16T23:09:24.447Z,79.61
2018-01-16T23:11:52.121Z,79.04
2018-01-16T23:14:19.679Z,78.15
2018-01-16T23:16:47.270Z,78.74
2018-01-16T23:19:14.835Z,78.84
2018-01-16T23:21:42.390Z,79.10
2018-01-16T23:24:09.993Z,79.02
2018-01-16T23:26:37.577Z,78.35
2018-01-16T23:29:05.139Z,77.94
2018-01-16T23:31:32.761Z,78.49
2018-01-16T23:34:00.330Z,78.08
2018-01-16T23:36:27.964Z,77.90
2018-01-16T23:38:55.581Z,76.91
2018-01-16T23:41:23.146Z,77.66
2018-01-16T23:43:50.698Z,76.85
2018-01-16T23:46:18.287Z,77.06
2018-01-16T23:48:45.882Z,77.27
2018-01-16T23:51:13.504Z,78.19
2018-01-16T23:53:41.126Z,78.58
2018-01-16T23:56:08.745Z,78.85
2018-01-16T23:58:36.318Z,78.80
